createdAt,value
2022-08-23T00:00:43.969Z,24.80
2022-08-23T00:03:39.640Z,23.80
2022-08-23T00:06:24.402Z,24.00
2022-08-23T00:09:04.805Z,22.30
2022-08-23T00:12:01.201Z,21.30
2022-08-23T00:15:02.364Z,23.40
2022-08-23T00:17:34.457Z,26.40
2022-08-23T00:20:20.739Z,26.90
2022-08-23T00:22:56.767Z,24.60
2022-08-23T00:25:40.099Z,24.20
2022-08-23T00:28:26.054Z,27.50
2022-08-23T00:30:58.426Z,25.60
2022-08-23T00:33:40.102Z,24.80
2022-08-23T00:36:23.325Z,23.20
2022-08-23T00:39:20.170Z,21.00
2022-08-23T00:41:57.246Z,23.60
2022-08-23T00:45:00.578Z,27.60
2022-08-23T00:48:25.619Z,22.80
2022-08-23T00:51:52.351Z,23.60
2022-08-23T00:54:46.505Z,22.40
2022-08-23T00:57:28.840Z,21.60
2022-08-23T01:00:24.399Z,28.40
2022-08-23T01:04:10.364Z,25.30
2022-08-23T01:07:43.066Z,28.30
2022-08-23T01:10:38.479Z,21.00
2022-08-23T01:13:36.555Z,24.50
2022-08-23T01:16:34.447Z,23.50
2022-08-23T01:19:42.745Z,30.50
2022-08-23T01:22:38.286Z,17.30
2022-08-23T01:25:40.390Z,22.70
2022-08-23T01:28:40.781Z,19.40
2022-08-23T01:31:39.379Z,25.40
2022-08-23T01:34:23.861Z,26.10
2022-08-23T01:37:11.180Z,22.60
2022-08-23T01:40:26.304Z,21.70
2022-08-23T01:43:22.828Z,21.00
2022-08-23T01:46:22.016Z,26.30
2022-08-23T01:49:08.176Z,23.60
2022-08-23T01:51:44.696Z,22.20
2022-08-23T01:54:34.328Z,26.30
2022-08-23T01:57:15.023Z,19.50
2022-08-23T01:59:50.207Z,20.10
2022-08-23T02:03:07.149Z,23.10
2022-08-23T02:05:48.221Z,23.00
2022-08-23T02:09:03.516Z,23.50
2022-08-23T02:11:51.458Z,27.40
2022-08-23T02:14:34.408Z,20.40
2022-08-23T02:17:19.058Z,21.70
2022-08-23T02:20:15.350Z,20.80
2022-08-23T02:22:52.753Z,19.80
2022-08-23T02:25:47.463Z,23.40
2022-08-23T02:28:36.814Z,18.30
2022-08-23T02:31:31.765Z,18.80
2022-08-23T02:34:30.308Z,21.50
2022-08-23T02:37:05.842Z,18.60
2022-08-23T02:39:53.718Z,25.10
2022-08-23T02:42:35.758Z,16.60
2022-08-23T02:45:10.493Z,22.60
2022-08-23T02:47:42.146Z,23.00
2022-08-23T02:50:19.143Z,20.80
2022-08-23T02:53:01.609Z,19.20
2022-08-23T02:55:41.913Z,25.00
2022-08-23T03:00:49.323Z,21.40
2022-08-23T03:03:26.947Z,18.40
2022-08-23T03:06:03.987Z,20.10
2022-08-23T03:09:18.812Z,17.30
2022-08-23T03:12:00.217Z,20.70
2022-08-23T03:15:00.196Z,20.30
2022-08-23T03:17:38.206Z,19.40
2022-08-23T03:20:54.354Z,16.80
2022-08-23T03:23:51.416Z,19.20
2022-08-23T03:26:47.186Z,18.00
2022-08-23T03:29:30.881Z,17.90
2022-08-23T03:32:09.732Z,18.50
2022-08-23T03:34:47.096Z,19.00
2022-08-23T03:37:30.337Z,19.10
2022-08-23T03:40:09.731Z,20.40
2022-08-23T03:42:56.967Z,22.90
2022-08-23T03:45:48.385Z,16.70
2022-08-23T03:51:34.268Z,17.90
2022-08-23T03:54:24.893Z,19.10
2022-08-23T03:57:17.904Z,20.70
2022-08-23T04:00:45.330Z,19.00
2022-08-23T04:03:44.745Z,15.60
2022-08-23T04:06:26.007Z,21.10
2022-08-23T04:08:58.168Z,19.00
2022-08-23T04:11:59.653Z,19.60
2022-08-23T04:14:37.411Z,22.20
2022-08-23T04:17:32.072Z,18.30
2022-08-23T04:20:18.282Z,18.80
2022-08-23T04:22:56.624Z,24.50
2022-08-23T04:25:44.404Z,20.60
2022-08-23T04:28:36.498Z,21.60
2022-08-23T04:31:42.728Z,18.80
2022-08-23T04:34:20.287Z,21.50
2022-08-23T04:36:56.126Z,18.10
2022-08-23T04:39:30.656Z,18.00
2022-08-23T04:42:21.807Z,18.00
2022-08-23T04:45:17.054Z,16.50
2022-08-23T04:47:56.555Z,18.20
2022-08-23T04:50:39.397Z,23.90
2022-08-23T04:53:16.845Z,17.40
2022-08-23T04:55:53.562Z,18.50
2022-08-23T04:58:27.819Z,21.50
2022-08-23T05:01:18.376Z,20.80
2022-08-23T05:03:58.326Z,18.30
2022-08-23T05:06:36.759Z,21.60
2022-08-23T05:09:32.143Z,21.00
2022-08-23T05:12:36.976Z,16.40
2022-08-23T05:15:17.843Z,18.40
2022-08-23T05:18:05.519Z,17.90
2022-08-23T05:20:48.839Z,15.90
2022-08-23T05:23:50.839Z,18.80
2022-08-23T05:26:55.442Z,18.60
2022-08-23T05:29:54.376Z,19.10
2022-08-23T05:32:57.195Z,19.60
2022-08-23T05:35:53.266Z,22.60
2022-08-23T05:38:55.092Z,20.40
2022-08-23T05:41:49.443Z,19.90
2022-08-23T05:44:40.884Z,17.10
2022-08-23T05:47:33.828Z,19.00
2022-08-23T05:50:33.925Z,23.80
2022-08-23T05:53:38.953Z,19.80
2022-08-23T05:57:03.095Z,22.40
2022-08-23T06:00:01.215Z,18.80
2022-08-23T06:02:51.921Z,15.40
2022-08-23T06:05:56.645Z,19.50
2022-08-23T06:09:03.869Z,18.80
2022-08-23T06:11:54.690Z,16.40
2022-08-23T06:14:27.846Z,18.60
2022-08-23T06:17:06.022Z,18.80
2022-08-23T06:19:43.783Z,18.20
2022-08-23T06:22:27.626Z,18.10
2022-08-23T06:25:27.197Z,18.20
2022-08-23T06:28:36.229Z,20.60
2022-08-23T06:31:52.260Z,18.70
2022-08-23T06:35:33.198Z,19.90
2022-08-23T06:38:41.578Z,15.60
2022-08-23T06:41:27.159Z,19.30
2022-08-23T06:44:32.316Z,17.00
2022-08-23T06:47:26.944Z,19.70
2022-08-23T06:50:21.592Z,16.70
2022-08-23T06:53:41.644Z,17.10
2022-08-23T06:57:03.166Z,16.90
2022-08-23T06:59:56.280Z,19.00
2022-08-23T07:03:01.038Z,19.90
2022-08-23T07:05:55.814Z,19.40
2022-08-23T07:08:46.031Z,17.30
2022-08-23T07:11:32.466Z,16.70
2022-08-23T07:14:34.404Z,19.30
2022-08-23T07:17:10.560Z,20.10
2022-08-23T07:20:03.374Z,20.90
2022-08-23T07:22:45.068Z,19.70
2022-08-23T07:25:41.541Z,25.70
2022-08-23T07:28:27.022Z,16.30
2022-08-23T07:31:14.420Z,21.90
2022-08-23T07:38:12.167Z,15.90
2022-08-23T07:41:12.624Z,19.90
2022-08-23T07:44:13.233Z,23.20
2022-08-23T07:46:52.483Z,20.10
2022-08-23T07:49:54.850Z,17.20
2022-08-23T07:52:33.760Z,21.20
2022-08-23T07:55:40.436Z,16.50
2022-08-23T07:58:49.901Z,22.20
2022-08-23T08:01:54.691Z,28.60
2022-08-23T08:04:44.888Z,22.50
2022-08-23T08:07:25.228Z,21.40
2022-08-23T08:10:14.318Z,22.20
2022-08-23T08:13:06.547Z,22.80
2022-08-23T08:16:34.021Z,22.90
2022-08-23T08:19:25.892Z,22.50
2022-08-23T08:22:30.578Z,20.10
2022-08-23T08:25:36.218Z,16.20
2022-08-23T08:28:39.385Z,20.10
2022-08-23T08:31:46.412Z,22.40
2022-08-23T08:34:30.958Z,22.80
2022-08-23T08:37:29.842Z,24.30
2022-08-23T08:40:54.676Z,21.10
2022-08-23T08:43:44.146Z,24.00
2022-08-23T08:47:09.923Z,24.00
2022-08-23T08:53:02.156Z,24.00
2022-08-23T08:56:21.835Z,28.30
2022-08-23T08:59:38.782Z,17.20
2022-08-23T09:02:41.545Z,18.90
2022-08-23T09:05:40.694Z,19.60
2022-08-23T09:09:11.743Z,19.00
2022-08-23T09:12:51.911Z,22.80
2022-08-23T09:15:53.416Z,16.90
2022-08-23T09:19:14.397Z,24.40
2022-08-23T09:22:51.066Z,21.10
2022-08-23T09:25:41.996Z,21.10
2022-08-23T09:28:40.682Z,24.90
2022-08-23T09:31:37.985Z,30.50
2022-08-23T09:34:32.380Z,21.30
2022-08-23T09:37:30.059Z,19.90
2022-08-23T09:40:59.926Z,22.10
2022-08-23T09:44:31.607Z,22.90
2022-08-23T09:47:44.584Z,26.50
2022-08-23T09:50:42.335Z,22.90
2022-08-23T09:53:57.382Z,25.50
2022-08-23T09:57:14.658Z,25.10
2022-08-23T10:00:32.772Z,20.70
2022-08-23T10:03:31.679Z,20.50
2022-08-23T10:06:38.742Z,21.70
2022-08-23T10:09:41.469Z,30.00
2022-08-23T10:12:21.427Z,24.00
2022-08-23T10:15:20.794Z,22.40
2022-08-23T10:18:16.655Z,22.60
2022-08-23T10:21:06.629Z,26.00
2022-08-23T10:24:17.667Z,22.60
2022-08-23T10:28:06.024Z,22.40
2022-08-23T10:30:51.864Z,23.20
2022-08-23T10:33:49.727Z,23.90
2022-08-23T10:36:59.881Z,24.20
2022-08-23T10:40:03.137Z,29.40
2022-08-23T10:43:00.132Z,23.10
2022-08-23T10:45:37.805Z,22.20
2022-08-23T10:48:43.235Z,26.90
2022-08-23T10:51:42.861Z,24.00
2022-08-23T10:55:00.216Z,26.00
2022-08-23T10:57:40.922Z,21.80
2022-08-23T11:00:40.031Z,26.10
2022-08-23T11:03:40.131Z,26.60
2022-08-23T11:06:40.792Z,24.30
2022-08-23T11:09:33.748Z,25.10
2022-08-23T11:12:55.989Z,30.80
2022-08-23T11:15:54.915Z,25.10
2022-08-23T11:18:33.368Z,28.10
2022-08-23T11:21:37.437Z,25.60
2022-08-23T11:24:26.630Z,20.60
2022-08-23T11:26:56.331Z,32.00
2022-08-23T11:29:43.850Z,29.60
2022-08-23T11:32:30.934Z,29.40
2022-08-23T11:35:43.488Z,30.10
2022-08-23T11:38:22.462Z,31.10
2022-08-23T11:43:43.288Z,23.20
2022-08-23T11:47:12.445Z,27.00
2022-08-23T11:50:02.090Z,32.20
2022-08-23T11:53:07.507Z,38.00
2022-08-23T11:56:33.060Z,32.60
2022-08-23T11:59:41.540Z,31.10
2022-08-23T12:02:50.184Z,24.30
2022-08-23T12:05:37.615Z,27.20
2022-08-23T12:08:26.583Z,28.40
2022-08-23T12:11:10.704Z,27.80
2022-08-23T12:14:37.433Z,30.50
2022-08-23T12:17:28.719Z,32.00
2022-08-23T12:20:16.833Z,25.60
2022-08-23T12:23:20.976Z,35.80
2022-08-23T12:26:21.963Z,27.40
2022-08-23T12:29:27.835Z,36.70
2022-08-23T12:32:12.098Z,36.30
2022-08-23T12:35:37.103Z,30.30
2022-08-23T12:38:39.244Z,34.60
2022-08-23T12:41:56.594Z,32.70
2022-08-23T12:44:54.983Z,29.50
2022-08-23T12:47:43.741Z,38.90
2022-08-23T12:50:16.371Z,36.60
2022-08-23T12:53:28.289Z,32.70
2022-08-23T12:56:31.944Z,36.80
2022-08-23T12:59:32.298Z,30.40
2022-08-23T13:02:32.462Z,37.10
2022-08-23T13:05:40.952Z,34.50
2022-08-23T13:08:37.122Z,35.50
2022-08-23T13:11:54.170Z,28.60
2022-08-23T13:14:33.494Z,34.90
2022-08-23T13:18:02.890Z,35.80
2022-08-23T13:21:26.123Z,39.10
2022-08-23T13:24:23.688Z,34.10
2022-08-23T13:27:23.487Z,40.50
2022-08-23T13:30:36.588Z,42.50
2022-08-23T13:33:15.098Z,40.60
2022-08-23T13:36:13.311Z,46.80
2022-08-23T13:39:17.408Z,41.50
2022-08-23T13:42:15.367Z,45.20
2022-08-23T13:44:55.686Z,37.50
2022-08-23T13:47:49.907Z,43.00
2022-08-23T13:50:37.474Z,48.20
2022-08-23T13:53:46.497Z,48.10
2022-08-23T13:56:58.728Z,41.00
2022-08-23T13:59:48.400Z,44.70
2022-08-23T14:05:45.768Z,41.40
2022-08-23T14:08:41.394Z,52.00
2022-08-23T14:11:38.055Z,53.10
2022-08-23T14:14:16.440Z,45.60
2022-08-23T14:16:48.982Z,52.60
2022-08-23T14:23:11.591Z,49.00
2022-08-23T14:25:45.815Z,43.20
2022-08-23T14:28:21.776Z,48.20
2022-08-23T14:31:05.349Z,46.10
2022-08-23T14:33:48.819Z,42.50
2022-08-23T14:36:30.106Z,58.80
2022-08-23T14:39:19.266Z,50.90
2022-08-23T14:42:06.872Z,50.40
2022-08-23T14:44:54.115Z,60.20
2022-08-23T14:47:50.405Z,60.00
2022-08-23T14:51:06.905Z,57.20
2022-08-23T14:54:10.246Z,124.80
2022-08-23T14:57:13.408Z,68.00
2022-08-23T14:59:51.146Z,66.10
2022-08-23T15:02:41.941Z,69.60
2022-08-23T15:05:49.385Z,59.30
2022-08-23T15:08:27.717Z,67.90
2022-08-23T15:14:36.190Z,65.20
2022-08-23T15:17:27.372Z,59.50
2022-08-23T15:20:02.072Z,58.30
2022-08-23T15:22:55.878Z,48.90
2022-08-23T15:26:23.446Z,52.50
2022-08-23T15:29:08.531Z,44.10
2022-08-23T15:32:12.772Z,57.50
2022-08-23T15:34:46.270Z,50.70
2022-08-23T15:37:44.942Z,60.10
2022-08-23T15:40:19.350Z,54.10
2022-08-23T15:43:09.558Z,41.40
2022-08-23T15:46:03.043Z,29.70
2022-08-23T15:48:59.045Z,27.10
2022-08-23T15:52:39.813Z,20.70
2022-08-23T15:55:46.504Z,20.70
2022-08-23T15:59:03.639Z,16.80
2022-08-23T16:01:45.119Z,22.20
2022-08-23T16:07:26.766Z,16.90
2022-08-23T16:10:01.397Z,13.00
2022-08-23T16:13:17.625Z,13.70
2022-08-23T16:16:43.345Z,13.70
2022-08-23T16:19:38.519Z,12.30
2022-08-23T16:22:17.278Z,22.10
2022-08-23T16:25:20.967Z,13.80
2022-08-23T16:27:59.680Z,21.60
2022-08-23T16:30:43.477Z,17.30
2022-08-23T16:33:31.654Z,15.50
2022-08-23T16:36:54.994Z,16.80
2022-08-23T16:39:59.756Z,16.00
2022-08-23T16:43:40.075Z,14.80
2022-08-23T16:46:45.529Z,17.20
2022-08-23T16:49:40.774Z,16.00
2022-08-23T16:59:14.523Z,16.50
2022-08-23T17:02:14.595Z,16.30
2022-08-23T17:05:11.473Z,17.40
2022-08-23T17:07:54.863Z,15.60
2022-08-23T17:11:55.663Z,25.10
2022-08-23T17:14:52.854Z,16.80
2022-08-23T17:18:00.407Z,14.80
2022-08-23T17:20:57.332Z,14.00
2022-08-23T17:23:40.890Z,14.10
2022-08-23T17:26:50.330Z,17.70
2022-08-23T17:29:49.613Z,11.10
2022-08-23T17:33:00.818Z,14.20
2022-08-23T17:35:49.649Z,14.30
2022-08-23T17:39:23.556Z,11.90
2022-08-23T17:42:24.780Z,13.30
2022-08-23T17:45:35.817Z,12.60
2022-08-23T17:48:34.712Z,12.80
2022-08-23T17:51:31.050Z,14.70
2022-08-23T17:54:36.931Z,16.40
2022-08-23T17:57:49.238Z,8.50
2022-08-23T18:00:55.185Z,12.90
2022-08-23T18:03:30.603Z,12.80
2022-08-23T18:06:27.772Z,16.90
2022-08-23T18:09:15.349Z,12.10
2022-08-23T18:12:34.299Z,12.40
2022-08-23T18:15:15.825Z,15.60
2022-08-23T18:17:58.296Z,14.40
2022-08-23T18:20:41.558Z,15.70
2022-08-23T18:23:56.206Z,14.70
2022-08-23T18:27:17.712Z,14.90
2022-08-23T18:30:07.018Z,13.70
2022-08-23T18:32:50.939Z,11.60
2022-08-23T18:35:44.319Z,11.90
2022-08-23T18:38:35.298Z,14.60
2022-08-23T18:41:20.418Z,16.40
2022-08-23T18:44:52.767Z,12.90
2022-08-23T18:47:41.394Z,16.40
2022-08-23T18:50:14.692Z,14.30
2022-08-23T18:53:00.187Z,18.30
2022-08-23T18:55:43.808Z,13.70
2022-08-23T18:58:48.791Z,14.10
2022-08-23T19:01:33.121Z,14.80
2022-08-23T19:04:15.904Z,11.90
2022-08-23T19:06:59.476Z,11.10
2022-08-23T19:09:37.995Z,13.50
2022-08-23T19:12:31.871Z,11.80
2022-08-23T19:15:24.891Z,10.40
2022-08-23T19:18:08.127Z,15.30
2022-08-23T19:20:44.784Z,12.10
2022-08-23T19:23:43.472Z,12.40
2022-08-23T19:26:35.297Z,12.80
2022-08-23T19:29:16.407Z,10.80
2022-08-23T19:31:53.139Z,14.80
2022-08-23T19:34:32.531Z,14.50
2022-08-23T19:37:16.202Z,12.50
2022-08-23T19:40:11.822Z,14.00
2022-08-23T19:43:03.951Z,12.40
2022-08-23T19:46:16.231Z,13.90
2022-08-23T19:49:27.852Z,15.50
2022-08-23T19:52:22.105Z,11.90
2022-08-23T19:56:00.481Z,12.80
2022-08-23T19:58:39.945Z,16.20
2022-08-23T20:01:43.971Z,12.60
2022-08-23T20:04:45.704Z,13.00
2022-08-23T20:07:40.182Z,16.40
2022-08-23T20:10:56.375Z,10.10
2022-08-23T20:14:01.164Z,9.90
2022-08-23T20:16:55.039Z,10.90
2022-08-23T20:20:16.250Z,12.10
2022-08-23T20:25:50.713Z,13.00
2022-08-23T20:29:09.314Z,13.20
2022-08-23T20:31:54.012Z,11.70
2022-08-23T20:35:02.996Z,9.10
2022-08-23T20:37:56.316Z,11.40
2022-08-23T20:41:08.970Z,12.30
2022-08-23T20:43:50.015Z,11.60
2022-08-23T20:46:54.693Z,11.90
2022-08-23T20:49:39.709Z,11.80
2022-08-23T20:52:30.546Z,11.40
2022-08-23T20:55:17.039Z,10.20
2022-08-23T20:58:14.579Z,10.20
2022-08-23T21:01:27.615Z,11.30
2022-08-23T21:04:21.833Z,10.70
2022-08-23T21:07:07.338Z,13.60
2022-08-23T21:10:22.693Z,13.80
2022-08-23T21:13:44.609Z,13.50
2022-08-23T21:16:50.528Z,11.80
2022-08-23T21:19:47.396Z,9.90
2022-08-23T21:22:47.245Z,14.70
2022-08-23T21:25:57.220Z,13.30
2022-08-23T21:28:48.740Z,12.80
2022-08-23T21:32:07.658Z,10.40
2022-08-23T21:35:24.211Z,12.00
2022-08-23T21:38:01.028Z,13.90
2022-08-23T21:41:05.816Z,12.70
2022-08-23T21:44:11.390Z,14.00
2022-08-23T21:47:02.348Z,11.30
2022-08-23T21:49:40.891Z,13.40
2022-08-23T21:52:35.333Z,10.90
2022-08-23T21:55:17.704Z,12.90
2022-08-23T21:58:02.329Z,11.30
2022-08-23T22:01:09.837Z,11.80
2022-08-23T22:04:06.595Z,8.60
2022-08-23T22:06:55.777Z,10.10
2022-08-23T22:10:17.203Z,11.50
2022-08-23T22:13:15.008Z,14.50
2022-08-23T22:16:00.837Z,14.10
2022-08-23T22:19:02.289Z,10.90
2022-08-23T22:21:57.292Z,13.00
2022-08-23T22:24:58.300Z,10.10
2022-08-23T22:27:48.549Z,11.80
2022-08-23T22:30:25.822Z,15.60
2022-08-23T22:33:09.322Z,10.90
2022-08-23T22:35:49.130Z,10.30
2022-08-23T22:38:54.288Z,17.60
2022-08-23T22:41:39.283Z,12.00
2022-08-23T22:44:30.229Z,12.20
2022-08-23T22:47:28.464Z,13.90
2022-08-23T22:50:10.858Z,11.10
2022-08-23T22:53:03.839Z,12.30
2022-08-23T22:55:43.049Z,13.50
2022-08-23T22:58:18.731Z,13.50
2022-08-23T23:01:03.751Z,13.80
2022-08-23T23:03:53.809Z,10.30
2022-08-23T23:06:43.474Z,11.40
2022-08-23T23:09:28.318Z,14.80
2022-08-23T23:12:02.920Z,15.20
2022-08-23T23:14:45.275Z,11.20
2022-08-23T23:17:47.053Z,12.10
2022-08-23T23:20:41.408Z,9.90
2022-08-23T23:23:22.962Z,10.00
2022-08-23T23:26:04.502Z,11.60
2022-08-23T23:29:23.604Z,10.50
2022-08-23T23:32:06.251Z,15.60
2022-08-23T23:34:48.655Z,11.90
2022-08-23T23:37:39.534Z,11.70
2022-08-23T23:40:26.751Z,13.60
2022-08-23T23:42:59.261Z,14.20
2022-08-23T23:45:59.350Z,11.60
2022-08-23T23:51:29.804Z,8.90
2022-08-23T23:54:26.433Z,14.30
2022-08-23T23:57:28.922Z,13.30
